sensor_id;sensor_type;location;lat;lon;timestamp;pressure;altitude;pressure_sealevel;temperature
31528;BMP280;10206;48.012;10.030;2023-12-28T00:01:36;94946.50;;;6.00
31528;BMP280;10206;48.012;10.030;2023-12-28T00:04:02;94947.41;;;6.02
31528;BMP280;10206;48.012;10.030;2023-12-28T00:06:28;94947.34;;;6.15
31528;BMP280;10206;48.012;10.030;2023-12-28T00:08:54;94948.94;;;6.11
31528;BMP280;10206;48.012;10.030;2023-12-28T00:11:20;94948.63;;;5.94
31528;BMP280;10206;48.012;10.030;2023-12-28T00:13:46;94948.00;;;6.08
31528;BMP280;10206;48.012;10.030;2023-12-28T00:16:13;94956.41;;;6.18
31528;BMP280;10206;48.012;10.030;2023-12-28T00:18:39;94947.59;;;6.04
31528;BMP280;10206;48.012;10.030;2023-12-28T00:21:05;94943.75;;;6.13
31528;BMP280;10206;48.012;10.030;2023-12-28T00:23:31;94951.88;;;6.13
31528;BMP280;10206;48.012;10.030;2023-12-28T00:25:57;94944.25;;;5.91
31528;BMP280;10206;48.012;10.030;2023-12-28T00:28:23;94956.25;;;6.23
31528;BMP280;10206;48.012;10.030;2023-12-28T00:30:49;94969.09;;;6.23
31528;BMP280;10206;48.012;10.030;2023-12-28T00:33:16;94963.25;;;6.40
31528;BMP280;10206;48.012;10.030;2023-12-28T00:35:42;94968.47;;;6.17
31528;BMP280;10206;48.012;10.030;2023-12-28T00:38:08;94976.03;;;6.31
31528;BMP280;10206;48.012;10.030;2023-12-28T00:40:34;94977.66;;;6.35
31528;BMP280;10206;48.012;10.030;2023-12-28T00:43:00;94972.84;;;6.41
31528;BMP280;10206;48.012;10.030;2023-12-28T00:45:26;94972.91;;;6.48
31528;BMP280;10206;48.012;10.030;2023-12-28T00:47:52;94974.69;;;6.46
31528;BMP280;10206;48.012;10.030;2023-12-28T00:50:21;94980.38;;;6.55
31528;BMP280;10206;48.012;10.030;2023-12-28T00:52:47;94975.03;;;6.21
31528;BMP280;10206;48.012;10.030;2023-12-28T00:55:13;94979.34;;;6.04
31528;BMP280;10206;48.012;10.030;2023-12-28T00:57:39;94975.50;;;6.12
31528;BMP280;10206;48.012;10.030;2023-12-28T01:00:06;94975.00;;;6.01
31528;BMP280;10206;48.012;10.030;2023-12-28T01:02:32;94980.53;;;5.75
31528;BMP280;10206;48.012;10.030;2023-12-28T01:04:58;94982.22;;;5.98
31528;BMP280;10206;48.012;10.030;2023-12-28T01:07:24;94984.78;;;5.83
31528;BMP280;10206;48.012;10.030;2023-12-28T01:09:50;94990.91;;;5.84
31528;BMP280;10206;48.012;10.030;2023-12-28T01:12:17;94992.00;;;5.67
31528;BMP280;10206;48.012;10.030;2023-12-28T01:14:43;94992.47;;;5.79
31528;BMP280;10206;48.012;10.030;2023-12-28T01:17:09;95002.03;;;5.93
31528;BMP280;10206;48.012;10.030;2023-12-28T01:19:35;95001.84;;;5.78
31528;BMP280;10206;48.012;10.030;2023-12-28T01:22:01;95020.88;;;5.86
31528;BMP280;10206;48.012;10.030;2023-12-28T01:24:27;95008.97;;;5.68
31528;BMP280;10206;48.012;10.030;2023-12-28T01:26:53;95011.69;;;5.42
31528;BMP280;10206;48.012;10.030;2023-12-28T01:29:19;95006.69;;;5.46
31528;BMP280;10206;48.012;10.030;2023-12-28T01:31:46;95010.44;;;5.43
31528;BMP280;10206;48.012;10.030;2023-12-28T01:34:12;95004.22;;;5.35
31528;BMP280;10206;48.012;10.030;2023-12-28T01:36:38;95004.31;;;5.42
31528;BMP280;10206;48.012;10.030;2023-12-28T01:39:07;95006.19;;;5.47
31528;BMP280;10206;48.012;10.030;2023-12-28T01:41:33;95003.16;;;5.51
31528;BMP280;10206;48.012;10.030;2023-12-28T01:43:59;95001.72;;;5.37
31528;BMP280;10206;48.012;10.030;2023-12-28T01:46:25;94992.78;;;5.29
31528;BMP280;10206;48.012;10.030;2023-12-28T01:48:51;94998.63;;;5.33
31528;BMP280;10206;48.012;10.030;2023-12-28T01:51:19;94997.34;;;5.34
31528;BMP280;10206;48.012;10.030;2023-12-28T01:53:48;94997.78;;;5.38
31528;BMP280;10206;48.012;10.030;2023-12-28T01:56:15;94997.03;;;5.37
31528;BMP280;10206;48.012;10.030;2023-12-28T01:58:44;95000.66;;;5.53
31528;BMP280;10206;48.012;10.030;2023-12-28T02:01:11;94997.44;;;5.54
31528;BMP280;10206;48.012;10.030;2023-12-28T02:03:38;95000.84;;;5.55
31528;BMP280;10206;48.012;10.030;2023-12-28T02:06:06;95000.16;;;5.54
31528;BMP280;10206;48.012;10.030;2023-12-28T02:08:32;94993.16;;;5.46
31528;BMP280;10206;48.012;10.030;2023-12-28T02:10:59;94999.81;;;5.58
31528;BMP280;10206;48.012;10.030;2023-12-28T02:13:26;94987.88;;;5.40
31528;BMP280;10206;48.012;10.030;2023-12-28T02:16:12;94990.16;;;5.36
31528;BMP280;10206;48.012;10.030;2023-12-28T02:18:43;94998.50;;;5.12
31528;BMP280;10206;48.012;10.030;2023-12-28T02:21:09;95000.38;;;5.04
31528;BMP280;10206;48.012;10.030;2023-12-28T02:23:38;95003.38;;;5.14
31528;BMP280;10206;48.012;10.030;2023-12-28T02:26:04;95001.41;;;5.14
31528;BMP280;10206;48.012;10.030;2023-12-28T02:28:30;95007.97;;;5.05
31528;BMP280;10206;48.012;10.030;2023-12-28T02:30:56;95013.34;;;4.92
31528;BMP280;10206;48.012;10.030;2023-12-28T02:33:38;95002.16;;;5.01
31528;BMP280;10206;48.012;10.030;2023-12-28T02:36:11;94998.19;;;4.89
31528;BMP280;10206;48.012;10.030;2023-12-28T02:38:39;94994.94;;;4.91
31528;BMP280;10206;48.012;10.030;2023-12-28T02:41:07;94999.75;;;4.98
31528;BMP280;10206;48.012;10.030;2023-12-28T02:43:34;94999.63;;;4.77
31528;BMP280;10206;48.012;10.030;2023-12-28T02:46:01;94998.22;;;5.02
31528;BMP280;10206;48.012;10.030;2023-12-28T02:48:27;94996.09;;;5.08
31528;BMP280;10206;48.012;10.030;2023-12-28T02:50:53;94996.00;;;5.14
31528;BMP280;10206;48.012;10.030;2023-12-28T02:53:19;94989.38;;;5.15
31528;BMP280;10206;48.012;10.030;2023-12-28T02:55:45;94993.19;;;5.06
31528;BMP280;10206;48.012;10.030;2023-12-28T02:58:11;94991.03;;;5.18
31528;BMP280;10206;48.012;10.030;2023-12-28T03:00:37;94992.59;;;5.00
31528;BMP280;10206;48.012;10.030;2023-12-28T03:03:03;94994.03;;;5.01
31528;BMP280;10206;48.012;10.030;2023-12-28T03:05:29;95002.44;;;4.85
31528;BMP280;10206;48.012;10.030;2023-12-28T03:07:55;95000.28;;;5.09
31528;BMP280;10206;48.012;10.030;2023-12-28T03:10:23;95003.47;;;5.08
31528;BMP280;10206;48.012;10.030;2023-12-28T03:12:49;95006.50;;;5.04
31528;BMP280;10206;48.012;10.030;2023-12-28T03:15:15;95004.84;;;5.15
31528;BMP280;10206;48.012;10.030;2023-12-28T03:17:41;95008.16;;;4.94
31528;BMP280;10206;48.012;10.030;2023-12-28T03:20:08;95021.81;;;5.02
31528;BMP280;10206;48.012;10.030;2023-12-28T03:22:34;95019.81;;;5.42
31528;BMP280;10206;48.012;10.030;2023-12-28T03:25:01;95010.13;;;5.33
31528;BMP280;10206;48.012;10.030;2023-12-28T03:27:27;95014.00;;;5.51
31528;BMP280;10206;48.012;10.030;2023-12-28T03:29:53;95011.47;;;5.40
31528;BMP280;10206;48.012;10.030;2023-12-28T03:32:19;95013.16;;;5.30
31528;BMP280;10206;48.012;10.030;2023-12-28T03:34:45;95012.53;;;5.50
31528;BMP280;10206;48.012;10.030;2023-12-28T03:37:11;95020.00;;;5.57
31528;BMP280;10206;48.012;10.030;2023-12-28T03:39:37;95012.53;;;5.50
31528;BMP280;10206;48.012;10.030;2023-12-28T03:42:04;95022.81;;;5.64
31528;BMP280;10206;48.012;10.030;2023-12-28T03:44:30;95012.22;;;5.40
31528;BMP280;10206;48.012;10.030;2023-12-28T03:46:56;95014.69;;;5.64
31528;BMP280;10206;48.012;10.030;2023-12-28T03:49:22;95004.41;;;5.50
31528;BMP280;10206;48.012;10.030;2023-12-28T03:51:50;95009.50;;;5.53
31528;BMP280;10206;48.012;10.030;2023-12-28T03:54:17;95011.28;;;5.25
31528;BMP280;10206;48.012;10.030;2023-12-28T03:56:43;95012.53;;;5.37
31528;BMP280;10206;48.012;10.030;2023-12-28T03:59:13;95018.44;;;5.61
31528;BMP280;10206;48.012;10.030;2023-12-28T04:01:41;95016.78;;;5.58
31528;BMP280;10206;48.012;10.030;2023-12-28T04:04:07;95016.44;;;5.62
31528;BMP280;10206;48.012;10.030;2023-12-28T04:06:34;95016.88;;;5.40
31528;BMP280;10206;48.012;10.030;2023-12-28T04:09:00;95020.88;;;5.52
31528;BMP280;10206;48.012;10.030;2023-12-28T04:11:26;95013.47;;;5.52
31528;BMP280;10206;48.012;10.030;2023-12-28T04:13:52;95016.38;;;5.54
31528;BMP280;10206;48.012;10.030;2023-12-28T04:16:18;95010.38;;;5.35
31528;BMP280;10206;48.012;10.030;2023-12-28T04:18:44;95008.72;;;5.32
31528;BMP280;10206;48.012;10.030;2023-12-28T04:21:12;95024.66;;;5.56
31528;BMP280;10206;48.012;10.030;2023-12-28T04:23:38;95025.13;;;5.34
31528;BMP280;10206;48.012;10.030;2023-12-28T04:26:05;95029.19;;;5.28
31528;BMP280;10206;48.012;10.030;2023-12-28T04:28:31;95027.41;;;5.17
31528;BMP280;10206;48.012;10.030;2023-12-28T04:30:57;95021.50;;;5.05
31528;BMP280;10206;48.012;10.030;2023-12-28T04:33:23;95019.72;;;5.21
31528;BMP280;10206;48.012;10.030;2023-12-28T04:35:49;95020.25;;;5.20
31528;BMP280;10206;48.012;10.030;2023-12-28T04:38:15;95018.97;;;5.07
31528;BMP280;10206;48.012;10.030;2023-12-28T04:40:41;95023.28;;;5.03
31528;BMP280;10206;48.012;10.030;2023-12-28T04:43:07;95017.44;;;4.99
31528;BMP280;10206;48.012;10.030;2023-12-28T04:45:33;95027.22;;;5.02
31528;BMP280;10206;48.012;10.030;2023-12-28T04:48:00;95024.00;;;5.03
31528;BMP280;10206;48.012;10.030;2023-12-28T04:50:26;95021.16;;;5.09
31528;BMP280;10206;48.012;10.030;2023-12-28T04:52:52;95023.28;;;5.03
31528;BMP280;10206;48.012;10.030;2023-12-28T04:55:18;95015.56;;;4.94
31528;BMP280;10206;48.012;10.030;2023-12-28T04:57:44;95018.34;;;4.88
31528;BMP280;10206;48.012;10.030;2023-12-28T05:00:10;95021.59;;;4.87
31528;BMP280;10206;48.012;10.030;2023-12-28T05:02:36;95027.94;;;5.02
31528;BMP280;10206;48.012;10.030;2023-12-28T05:05:03;95038.09;;;4.83
31528;BMP280;10206;48.012;10.030;2023-12-28T05:07:29;95042.34;;;4.79
31528;BMP280;10206;48.012;10.030;2023-12-28T05:09:55;95033.00;;;4.80
31528;BMP280;10206;48.012;10.030;2023-12-28T05:12:21;95026.19;;;5.05
31528;BMP280;10206;48.012;10.030;2023-12-28T05:14:47;95011.28;;;4.98
31528;BMP280;10206;48.012;10.030;2023-12-28T05:17:13;95015.97;;;5.24
31528;BMP280;10206;48.012;10.030;2023-12-28T05:19:39;95012.53;;;5.10
31528;BMP280;10206;48.012;10.030;2023-12-28T05:22:05;95011.38;;;4.80
31528;BMP280;10206;48.012;10.030;2023-12-28T05:24:34;95013.16;;;4.90
31528;BMP280;10206;48.012;10.030;2023-12-28T05:27:00;95009.19;;;4.91
31528;BMP280;10206;48.012;10.030;2023-12-28T05:29:26;95028.44;;;4.88
31528;BMP280;10206;48.012;10.030;2023-12-28T05:31:52;95020.13;;;4.86
31528;BMP280;10206;48.012;10.030;2023-12-28T05:34:18;95022.53;;;4.89
31528;BMP280;10206;48.012;10.030;2023-12-28T05:36:44;95025.19;;;4.76
31528;BMP280;10206;48.012;10.030;2023-12-28T05:39:11;95030.75;;;4.97
31528;BMP280;10206;48.012;10.030;2023-12-28T05:41:39;95030.75;;;4.97
31528;BMP280;10206;48.012;10.030;2023-12-28T05:44:06;95026.84;;;4.66
31528;BMP280;10206;48.012;10.030;2023-12-28T05:46:32;95022.28;;;4.74
31528;BMP280;10206;48.012;10.030;2023-12-28T05:48:59;95024.66;;;4.91
31528;BMP280;10206;48.012;10.030;2023-12-28T05:51:25;95034.50;;;4.62
31528;BMP280;10206;48.012;10.030;2023-12-28T05:53:51;95027.97;;;4.58
31528;BMP280;10206;48.012;10.030;2023-12-28T05:56:17;95020.63;;;4.71
31528;BMP280;10206;48.012;10.030;2023-12-28T05:58:43;95018.13;;;4.73
31528;BMP280;10206;48.012;10.030;2023-12-28T06:01:09;95020.00;;;4.78
31528;BMP280;10206;48.012;10.030;2023-12-28T06:03:35;95011.38;;;4.67
31528;BMP280;10206;48.012;10.030;2023-12-28T06:06:01;94999.53;;;4.70
31528;BMP280;10206;48.012;10.030;2023-12-28T06:08:27;95000.88;;;4.76
31528;BMP280;10206;48.012;10.030;2023-12-28T06:10:53;94996.50;;;4.73
31528;BMP280;10206;48.012;10.030;2023-12-28T06:13:19;95004.00;;;4.67
31528;BMP280;10206;48.012;10.030;2023-12-28T06:15:46;95003.72;;;4.84
31528;BMP280;10206;48.012;10.030;2023-12-28T06:18:12;94997.66;;;4.78
31528;BMP280;10206;48.012;10.030;2023-12-28T06:20:38;95010.78;;;5.00
31528;BMP280;10206;48.012;10.030;2023-12-28T06:23:04;95001.00;;;4.97
31528;BMP280;10206;48.012;10.030;2023-12-28T06:25:32;95010.16;;;4.94
31528;BMP280;10206;48.012;10.030;2023-12-28T06:27:58;94995.19;;;5.19
31528;BMP280;10206;48.012;10.030;2023-12-28T06:30:24;95002.78;;;5.21
31528;BMP280;10206;48.012;10.030;2023-12-28T06:32:50;95002.69;;;5.00
31528;BMP280;10206;48.012;10.030;2023-12-28T06:35:16;94999.53;;;5.09
31528;BMP280;10206;48.012;10.030;2023-12-28T06:37:43;95001.53;;;5.22
31528;BMP280;10206;48.012;10.030;2023-12-28T06:40:09;94990.84;;;5.03
31528;BMP280;10206;48.012;10.030;2023-12-28T06:42:35;95000.38;;;5.04
31528;BMP280;10206;48.012;10.030;2023-12-28T06:45:01;94999.44;;;5.01
31528;BMP280;10206;48.012;10.030;2023-12-28T06:47:28;95006.81;;;5.14
31528;BMP280;10206;48.012;10.030;2023-12-28T06:49:54;95015.78;;;5.35
31528;BMP280;10206;48.012;10.030;2023-12-28T06:52:20;95014.09;;;5.45
31528;BMP280;10206;48.012;10.030;2023-12-28T06:54:46;95007.88;;;5.37
31528;BMP280;10206;48.012;10.030;2023-12-28T06:57:12;95013.09;;;5.22
31528;BMP280;10206;48.012;10.030;2023-12-28T06:59:38;95012.44;;;5.29
31528;BMP280;10206;48.012;10.030;2023-12-28T07:02:04;95005.69;;;5.49
31528;BMP280;10206;48.012;10.030;2023-12-28T07:04:31;95015.00;;;5.61
31528;BMP280;10206;48.012;10.030;2023-12-28T07:06:58;95009.81;;;5.50
31528;BMP280;10206;48.012;10.030;2023-12-28T07:09:25;95025.81;;;5.74
31528;BMP280;10206;48.012;10.030;2023-12-28T07:11:51;95032.06;;;5.69
31528;BMP280;10206;48.012;10.030;2023-12-28T07:14:17;95025.69;;;5.80
31528;BMP280;10206;48.012;10.030;2023-12-28T07:16:43;95024.72;;;5.90
31528;BMP280;10206;48.012;10.030;2023-12-28T07:19:09;95022.97;;;5.80
31528;BMP280;10206;48.012;10.030;2023-12-28T07:21:35;95031.13;;;5.66
31528;BMP280;10206;48.012;10.030;2023-12-28T07:24:01;95029.78;;;5.60
31528;BMP280;10206;48.012;10.030;2023-12-28T07:26:27;95031.97;;;5.61
31528;BMP280;10206;48.012;10.030;2023-12-28T07:28:53;95042.50;;;5.65
31528;BMP280;10206;48.012;10.030;2023-12-28T07:31:27;95057.56;;;5.60
31528;BMP280;10206;48.012;10.030;2023-12-28T07:33:54;95060.03;;;5.85
31528;BMP280;10206;48.012;10.030;2023-12-28T07:36:21;95060.19;;;6.00
31528;BMP280;10206;48.012;10.030;2023-12-28T07:38:47;95060.88;;;6.13
31528;BMP280;10206;48.012;10.030;2023-12-28T07:41:13;95054.88;;;6.28
31528;BMP280;10206;48.012;10.030;2023-12-28T07:43:39;95059.81;;;6.50
31528;BMP280;10206;48.012;10.030;2023-12-28T07:46:05;95070.28;;;6.95
31528;BMP280;10206;48.012;10.030;2023-12-28T07:48:31;95069.44;;;7.00
31528;BMP280;10206;48.012;10.030;2023-12-28T07:50:58;95066.59;;;7.41
31528;BMP280;10206;48.012;10.030;2023-12-28T07:53:24;95077.19;;;7.24
31528;BMP280;10206;48.012;10.030;2023-12-28T07:55:50;95071.69;;;7.81
31528;BMP280;10206;48.012;10.030;2023-12-28T07:58:17;95070.31;;;8.02
31528;BMP280;10206;48.012;10.030;2023-12-28T08:00:43;95052.94;;;8.05
31528;BMP280;10206;48.012;10.030;2023-12-28T08:03:09;95050.81;;;8.42
31528;BMP280;10206;48.012;10.030;2023-12-28T08:05:35;95055.16;;;8.60
31528;BMP280;10206;48.012;10.030;2023-12-28T08:08:01;95051.72;;;8.52
31528;BMP280;10206;48.012;10.030;2023-12-28T08:10:27;95044.06;;;8.27
31528;BMP280;10206;48.012;10.030;2023-12-28T08:12:53;95039.56;;;8.53
31528;BMP280;10206;48.012;10.030;2023-12-28T08:15:19;95039.75;;;8.40
31528;BMP280;10206;48.012;10.030;2023-12-28T08:17:46;95046.66;;;8.48
31528;BMP280;10206;48.012;10.030;2023-12-28T08:20:12;95047.53;;;8.43
31528;BMP280;10206;48.012;10.030;2023-12-28T08:22:38;95051.72;;;8.44
31528;BMP280;10206;48.012;10.030;2023-12-28T08:25:04;95045.75;;;8.76
31528;BMP280;10206;48.012;10.030;2023-12-28T08:27:30;95052.25;;;8.96
31528;BMP280;10206;48.012;10.030;2023-12-28T08:29:56;95042.66;;;8.95
31528;BMP280;10206;48.012;10.030;2023-12-28T08:32:22;95052.44;;;9.05
31528;BMP280;10206;48.012;10.030;2023-12-28T08:34:48;95054.03;;;9.08
31528;BMP280;10206;48.012;10.030;2023-12-28T08:37:15;95048.06;;;9.10
31528;BMP280;10206;48.012;10.030;2023-12-28T08:39:41;95046.97;;;9.13
31528;BMP280;10206;48.012;10.030;2023-12-28T08:42:07;95042.38;;;9.38
31528;BMP280;10206;48.012;10.030;2023-12-28T08:44:33;95038.44;;;9.16
31528;BMP280;10206;48.012;10.030;2023-12-28T08:47:00;95044.34;;;9.37
31528;BMP280;10206;48.012;10.030;2023-12-28T08:49:28;95039.44;;;9.43
31528;BMP280;10206;48.012;10.030;2023-12-28T08:51:55;95036.09;;;9.60
31528;BMP280;10206;48.012;10.030;2023-12-28T08:54:21;95042.06;;;9.66
31528;BMP280;10206;48.012;10.030;2023-12-28T08:56:47;95049.38;;;9.96
31528;BMP280;10206;48.012;10.030;2023-12-28T08:59:14;95057.56;;;9.88
31528;BMP280;10206;48.012;10.030;2023-12-28T09:01:40;95056.97;;;9.97
31528;BMP280;10206;48.012;10.030;2023-12-28T09:04:06;95065.94;;;10.22
31528;BMP280;10206;48.012;10.030;2023-12-28T09:06:32;95068.50;;;10.45
31528;BMP280;10206;48.012;10.030;2023-12-28T09:08:58;95065.34;;;10.56
31528;BMP280;10206;48.012;10.030;2023-12-28T09:11:24;95059.81;;;10.64
31528;BMP280;10206;48.012;10.030;2023-12-28T09:13:51;95059.88;;;10.81
31528;BMP280;10206;48.012;10.030;2023-12-28T09:16:17;95053.63;;;10.63
31528;BMP280;10206;48.012;10.030;2023-12-28T09:18:43;95048.63;;;10.94
31528;BMP280;10206;48.012;10.030;2023-12-28T09:21:10;95054.91;;;10.87
31528;BMP280;10206;48.012;10.030;2023-12-28T09:23:36;95067.34;;;10.97
31528;BMP280;10206;48.012;10.030;2023-12-28T09:26:03;95069.44;;;10.89
31528;BMP280;10206;48.012;10.030;2023-12-28T09:28:30;95073.63;;;11.08
31528;BMP280;10206;48.012;10.030;2023-12-28T09:30:56;95069.13;;;11.20
31528;BMP280;10206;48.012;10.030;2023-12-28T09:33:23;95076.91;;;11.40
31528;BMP280;10206;48.012;10.030;2023-12-28T09:35:49;95083.09;;;11.41
31528;BMP280;10206;48.012;10.030;2023-12-28T09:38:15;95081.25;;;11.43
31528;BMP280;10206;48.012;10.030;2023-12-28T09:40:44;95083.25;;;11.43
31528;BMP280;10206;48.012;10.030;2023-12-28T09:43:21;95084.22;;;11.55
31528;BMP280;10206;48.012;10.030;2023-12-28T09:45:48;95079.31;;;11.53
31528;BMP280;10206;48.012;10.030;2023-12-28T09:48:18;95081.66;;;11.57
31528;BMP280;10206;48.012;10.030;2023-12-28T09:50:48;95084.47;;;11.49
31528;BMP280;10206;48.012;10.030;2023-12-28T09:53:15;95079.19;;;11.51
31528;BMP280;10206;48.012;10.030;2023-12-28T09:55:41;95085.44;;;11.61
31528;BMP280;10206;48.012;10.030;2023-12-28T09:58:08;95084.66;;;11.51
31528;BMP280;10206;48.012;10.030;2023-12-28T10:00:35;95082.03;;;11.53
31528;BMP280;10206;48.012;10.030;2023-12-28T10:03:01;95081.09;;;11.58
31528;BMP280;10206;48.012;10.030;2023-12-28T10:05:29;95082.53;;;11.59
31528;BMP280;10206;48.012;10.030;2023-12-28T10:07:56;95079.47;;;11.55
31528;BMP280;10206;48.012;10.030;2023-12-28T10:10:23;95071.69;;;11.52
31528;BMP280;10206;48.012;10.030;2023-12-28T10:12:49;95077.72;;;11.67
31528;BMP280;10206;48.012;10.030;2023-12-28T10:15:15;95088.25;;;11.71
31528;BMP280;10206;48.012;10.030;2023-12-28T10:17:41;95089.53;;;11.36
31528;BMP280;10206;48.012;10.030;2023-12-28T10:20:08;95082.22;;;11.55
31528;BMP280;10206;48.012;10.030;2023-12-28T10:22:36;95077.88;;;11.52
31528;BMP280;10206;48.012;10.030;2023-12-28T10:25:03;95070.34;;;11.43
31528;BMP280;10206;48.012;10.030;2023-12-28T10:27:29;95059.59;;;11.28
31528;BMP280;10206;48.012;10.030;2023-12-28T10:29:56;95054.38;;;11.06
31528;BMP280;10206;48.012;10.030;2023-12-28T10:32:25;95057.59;;;11.29
31528;BMP280;10206;48.012;10.030;2023-12-28T10:34:54;95062.97;;;11.19
31528;BMP280;10206;48.012;10.030;2023-12-28T10:37:21;95055.31;;;11.00
31528;BMP280;10206;48.012;10.030;2023-12-28T10:39:48;95045.75;;;10.92
31528;BMP280;10206;48.012;10.030;2023-12-28T10:42:44;95041.66;;;11.35
31528;BMP280;10206;48.012;10.030;2023-12-28T10:45:12;95048.56;;;11.36
31528;BMP280;10206;48.012;10.030;2023-12-28T10:47:53;95040.38;;;11.36
31528;BMP280;10206;48.012;10.030;2023-12-28T10:50:20;95038.84;;;11.25
31528;BMP280;10206;48.012;10.030;2023-12-28T10:52:49;95052.81;;;11.46
31528;BMP280;10206;48.012;10.030;2023-12-28T10:58:16;95057.34;;;11.34
31528;BMP280;10206;48.012;10.030;2023-12-28T11:00:49;95056.53;;;11.41
31528;BMP280;10206;48.012;10.030;2023-12-28T11:03:23;95047.03;;;11.42
31528;BMP280;10206;48.012;10.030;2023-12-28T11:05:52;95037.75;;;11.28
31528;BMP280;10206;48.012;10.030;2023-12-28T11:08:20;95041.34;;;11.31
31528;BMP280;10206;48.012;10.030;2023-12-28T11:10:48;95043.38;;;11.30
31528;BMP280;10206;48.012;10.030;2023-12-28T11:13:17;95043.03;;;10.92
31528;BMP280;10206;48.012;10.030;2023-12-28T11:15:47;95056.44;;;11.32
31528;BMP280;10206;48.012;10.030;2023-12-28T11:18:15;95049.59;;;11.40
31528;BMP280;10206;48.012;10.030;2023-12-28T11:20:43;95054.59;;;11.34
31528;BMP280;10206;48.012;10.030;2023-12-28T11:23:11;95065.91;;;11.48
31528;BMP280;10206;48.012;10.030;2023-12-28T11:25:37;95061.81;;;11.56
31528;BMP280;10206;48.012;10.030;2023-12-28T11:28:11;95063.72;;;11.63
31528;BMP280;10206;48.012;10.030;2023-12-28T11:30:38;95056.69;;;11.60
31528;BMP280;10206;48.012;10.030;2023-12-28T11:33:07;95052.13;;;11.72
31528;BMP280;10206;48.012;10.030;2023-12-28T11:35:40;95045.41;;;11.73
31528;BMP280;10206;48.012;10.030;2023-12-28T11:38:11;95048.66;;;11.89
31528;BMP280;10206;48.012;10.030;2023-12-28T11:40:44;95039.56;;;11.87
31528;BMP280;10206;48.012;10.030;2023-12-28T11:43:18;95041.03;;;11.97
31528;BMP280;10206;48.012;10.030;2023-12-28T11:45:49;95031.00;;;12.00
31528;BMP280;10206;48.012;10.030;2023-12-28T11:48:26;95031.16;;;12.02
31528;BMP280;10206;48.012;10.030;2023-12-28T11:51:00;95027.69;;;11.74
31528;BMP280;10206;48.012;10.030;2023-12-28T11:53:26;95027.50;;;11.90
31528;BMP280;10206;48.012;10.030;2023-12-28T11:56:00;95024.81;;;11.99
31528;BMP280;10206;48.012;10.030;2023-12-28T11:58:29;95029.00;;;11.73
31528;BMP280;10206;48.012;10.030;2023-12-28T12:00:55;95034.72;;;11.95
31528;BMP280;10206;48.012;10.030;2023-12-28T12:03:21;95028.59;;;12.13
31528;BMP280;10206;48.012;10.030;2023-12-28T12:05:47;95023.25;;;12.06
31528;BMP280;10206;48.012;10.030;2023-12-28T12:08:13;95020.97;;;12.12
31528;BMP280;10206;48.012;10.030;2023-12-28T12:10:41;95014.97;;;12.23
31528;BMP280;10206;48.012;10.030;2023-12-28T12:13:08;95011.81;;;12.26
31528;BMP280;10206;48.012;10.030;2023-12-28T12:15:34;95005.16;;;12.20
31528;BMP280;10206;48.012;10.030;2023-12-28T12:18:01;95001.47;;;12.25
31528;BMP280;10206;48.012;10.030;2023-12-28T12:20:29;95003.38;;;12.32
31528;BMP280;10206;48.012;10.030;2023-12-28T12:22:58;94995.38;;;12.17
31528;BMP280;10206;48.012;10.030;2023-12-28T12:25:25;95003.53;;;12.43
31528;BMP280;10206;48.012;10.030;2023-12-28T12:27:51;94997.66;;;12.11
31528;BMP280;10206;48.012;10.030;2023-12-28T12:30:19;94994.78;;;12.09
31528;BMP280;10206;48.012;10.030;2023-12-28T12:32:45;94997.25;;;12.14
31528;BMP280;10206;48.012;10.030;2023-12-28T12:35:11;94999.94;;;12.05
31528;BMP280;10206;48.012;10.030;2023-12-28T12:37:38;94998.44;;;12.30
31528;BMP280;10206;48.012;10.030;2023-12-28T12:40:04;94991.53;;;12.39
31528;BMP280;10206;48.012;10.030;2023-12-28T12:42:32;94982.34;;;11.98
31528;BMP280;10206;48.012;10.030;2023-12-28T12:44:59;94983.28;;;12.20
31528;BMP280;10206;48.012;10.030;2023-12-28T12:47:25;94977.97;;;12.22
31528;BMP280;10206;48.012;10.030;2023-12-28T12:49:56;94985.81;;;11.99
31528;BMP280;10206;48.012;10.030;2023-12-28T12:52:22;94964.00;;;12.18
31528;BMP280;10206;48.012;10.030;2023-12-28T12:54:57;94973.13;;;12.39
31528;BMP280;10206;48.012;10.030;2023-12-28T12:57:25;94973.53;;;12.36
31528;BMP280;10206;48.012;10.030;2023-12-28T12:59:54;94968.81;;;12.36
31528;BMP280;10206;48.012;10.030;2023-12-28T13:02:23;94984.69;;;12.02
31528;BMP280;10206;48.012;10.030;2023-12-28T13:04:52;94978.97;;;12.26
31528;BMP280;10206;48.012;10.030;2023-12-28T13:07:19;94989.53;;;12.39
31528;BMP280;10206;48.012;10.030;2023-12-28T13:09:45;94999.06;;;12.48
31528;BMP280;10206;48.012;10.030;2023-12-28T13:12:11;94994.78;;;12.55
31528;BMP280;10206;48.012;10.030;2023-12-28T13:14:37;94990.56;;;12.44
31528;BMP280;10206;48.012;10.030;2023-12-28T13:17:04;94989.06;;;12.24
31528;BMP280;10206;48.012;10.030;2023-12-28T13:19:30;94990.94;;;12.21
31528;BMP280;10206;48.012;10.030;2023-12-28T13:21:56;94989.34;;;12.18
31528;BMP280;10206;48.012;10.030;2023-12-28T13:24:22;94998.34;;;12.02
31528;BMP280;10206;48.012;10.030;2023-12-28T13:26:48;95001.47;;;11.98
31528;BMP280;10206;48.012;10.030;2023-12-28T13:29:14;94992.94;;;11.85
31528;BMP280;10206;48.012;10.030;2023-12-28T13:31:40;95002.34;;;11.64
31528;BMP280;10206;48.012;10.030;2023-12-28T13:34:07;94990.31;;;11.50
31528;BMP280;10206;48.012;10.030;2023-12-28T13:36:33;94986.56;;;11.72
31528;BMP280;10206;48.012;10.030;2023-12-28T13:39:00;94987.06;;;11.61
31528;BMP280;10206;48.012;10.030;2023-12-28T13:41:26;94990.66;;;11.37
31528;BMP280;10206;48.012;10.030;2023-12-28T13:43:52;94995.78;;;11.33
31528;BMP280;10206;48.012;10.030;2023-12-28T13:46:24;95000.84;;;11.37
31528;BMP280;10206;48.012;10.030;2023-12-28T13:48:50;94997.88;;;11.42
31528;BMP280;10206;48.012;10.030;2023-12-28T13:51:16;94998.59;;;11.43
31528;BMP280;10206;48.012;10.030;2023-12-28T13:53:43;95009.16;;;11.12
31528;BMP280;10206;48.012;10.030;2023-12-28T13:56:09;95002.31;;;11.21
31528;BMP280;10206;48.012;10.030;2023-12-28T13:58:35;95005.06;;;11.21
31528;BMP280;10206;48.012;10.030;2023-12-28T14:01:01;95012.69;;;11.22
31528;BMP280;10206;48.012;10.030;2023-12-28T14:03:28;95006.25;;;11.10
31528;BMP280;10206;48.012;10.030;2023-12-28T14:05:55;95006.97;;;11.28